This is the latest recevied weather packets stored in our database for station/object NM5PB-13. If no packets are shown the sender has not sent any weather packets the latest 10 day(s).
| Time | Temp. | Humidity | Pressure | Rain* | Wind** | Luminosity | Snow |
|---|---|---|---|---|---|---|---|
| 1787600567 | 26.11° C | 55% | 1018 hPa | 0 mm | - | - | - |
| 1787599659 | 27.22° C | 52% | 1018 hPa | 0 mm | - | - | - |
| 1787598756 | 26.67° C | 51% | 1018 hPa | 0 mm | - | - | - |
| 1787597851 | 26.11° C | 52% | 1018 hPa | 0 mm | - | - | - |
| 1787596948 | 25° C | 56% | 1019 hPa | 0 mm | - | - | - |
| 1787596042 | 25.56° C | 57% | 1019 hPa | 0 mm | - | - | - |
| 1787595139 | 26.11° C | 53% | 1019 hPa | 0 mm | - | - | - |
| 1787594235 | 26.11° C | 53% | 1019 hPa | 0 mm | - | - | - |
| 1787593331 | 25.56° C | 53% | 1019 hPa | 0 mm | - | - | - |
| 1787592428 | 25.56° C | 53% | 1019 hPa | 0 mm | - | - | - |
| 1787591525 | 25° C | 53% | 1019 hPa | 0 mm | - | - | - |
| 1787590620 | 25° C | 54% | 1019 hPa | 0 mm | - | - | - |
| 1787589714 | 25° C | 55% | 1019 hPa | 0 mm | - | - | - |
| 1787588810 | 25° C | 57% | 1019 hPa | 0 mm | - | - | - |
| 1787587905 | 23.89° C | 56% | 1019 hPa | 0 mm | - | - | - |
| 1787587003 | 23.89° C | 61% | 1019 hPa | 0 mm | - | - | - |
| 1787586099 | 23.89° C | 61% | 1019 hPa | 0 mm | - | - | - |
| 1787585194 | 22.78° C | 66% | 1019 hPa | 0 mm | - | - | - |
| 1787584292 | 22.78° C | 67% | 1019 hPa | 0 mm | - | - | - |
| 1787583386 | 22.22° C | 67% | 1019 hPa | 0 mm | - | - | - |
| 1787582483 | 21.67° C | 69% | 1019 hPa | 0 mm | - | - | - |
| 1787581581 | 20.56° C | 74% | 1019 hPa | 0 mm | - | - | - |
| 1787580677 | 18.89° C | 81% | 1019 hPa | 0 mm | - | - | - |
| 1787579768 | 17.22° C | 84% | 1019 hPa | 0 mm | - | - | - |
| 1787578853 | 16.11° C | 91% | 1019 hPa | 0 mm | - | - | - |
* Rain latest hour (hover to see other rain measurements)
** Current wind speed in m/s (hover to see current wind gust speed)